sensor_id;sensor_type;location;lat;lon;timestamp;P1;durP1;ratioP1;P2;durP2;ratioP2
11488;SDS011;5801;50.804;12.638;2022-08-06T00:01:09;3.17;;;2.00;;
11488;SDS011;5801;50.804;12.638;2022-08-06T00:03:35;2.55;;;2.28;;
11488;SDS011;5801;50.804;12.638;2022-08-06T00:06:01;2.38;;;2.17;;
11488;SDS011;5801;50.804;12.638;2022-08-06T00:08:27;2.25;;;1.90;;
11488;SDS011;5801;50.804;12.638;2022-08-06T00:10:53;2.88;;;2.05;;
11488;SDS011;5801;50.804;12.638;2022-08-06T00:13:19;2.53;;;2.03;;
11488;SDS011;5801;50.804;12.638;2022-08-06T00:15:45;2.90;;;2.13;;
11488;SDS011;5801;50.804;12.638;2022-08-06T00:18:11;3.78;;;2.00;;
11488;SDS011;5801;50.804;12.638;2022-08-06T00:20:37;3.67;;;2.40;;
11488;SDS011;5801;50.804;12.638;2022-08-06T00:23:03;4.47;;;2.50;;
11488;SDS011;5801;50.804;12.638;2022-08-06T00:25:28;3.28;;;2.42;;
11488;SDS011;5801;50.804;12.638;2022-08-06T00:27:54;81.93;;;39.10;;
11488;SDS011;5801;50.804;12.638;2022-08-06T00:30:20;51.95;;;26.38;;
11488;SDS011;5801;50.804;12.638;2022-08-06T00:32:46;27.83;;;13.15;;
11488;SDS011;5801;50.804;12.638;2022-08-06T00:35:12;14.80;;;5.57;;
11488;SDS011;5801;50.804;12.638;2022-08-06T00:37:38;7.68;;;4.68;;
11488;SDS011;5801;50.804;12.638;2022-08-06T00:40:04;2.60;;;2.40;;
11488;SDS011;5801;50.804;12.638;2022-08-06T00:42:30;3.85;;;2.78;;
11488;SDS011;5801;50.804;12.638;2022-08-06T00:44:56;4.68;;;2.40;;
11488;SDS011;5801;50.804;12.638;2022-08-06T00:47:22;2.40;;;2.20;;
11488;SDS011;5801;50.804;12.638;2022-08-06T00:49:48;5.32;;;2.55;;
11488;SDS011;5801;50.804;12.638;2022-08-06T00:52:14;3.53;;;2.90;;
11488;SDS011;5801;50.804;12.638;2022-08-06T00:54:40;6.10;;;3.85;;
11488;SDS011;5801;50.804;12.638;2022-08-06T00:57:06;4.28;;;3.30;;
11488;SDS011;5801;50.804;12.638;2022-08-06T00:59:32;3.53;;;2.88;;
11488;SDS011;5801;50.804;12.638;2022-08-06T01:01:57;4.25;;;3.00;;
11488;SDS011;5801;50.804;12.638;2022-08-06T01:04:23;5.15;;;2.70;;
11488;SDS011;5801;50.804;12.638;2022-08-06T01:06:49;2.70;;;2.50;;
11488;SDS011;5801;50.804;12.638;2022-08-06T01:09:15;3.13;;;2.72;;
11488;SDS011;5801;50.804;12.638;2022-08-06T01:11:41;3.63;;;2.45;;
11488;SDS011;5801;50.804;12.638;2022-08-06T01:14:07;3.53;;;2.30;;
11488;SDS011;5801;50.804;12.638;2022-08-06T01:19:01;2.50;;;2.17;;
11488;SDS011;5801;50.804;12.638;2022-08-06T01:27:23;6.50;;;3.92;;
11488;SDS011;5801;50.804;12.638;2022-08-06T01:29:58;4.82;;;4.22;;
11488;SDS011;5801;50.804;12.638;2022-08-06T01:32:31;8.50;;;4.32;;
11488;SDS011;5801;50.804;12.638;2022-08-06T01:34:59;5.47;;;4.18;;
11488;SDS011;5801;50.804;12.638;2022-08-06T01:37:28;4.85;;;3.70;;
11488;SDS011;5801;50.804;12.638;2022-08-06T01:40:02;5.45;;;3.95;;
11488;SDS011;5801;50.804;12.638;2022-08-06T01:42:31;5.35;;;4.00;;
11488;SDS011;5801;50.804;12.638;2022-08-06T01:44:58;4.63;;;3.60;;
11488;SDS011;5801;50.804;12.638;2022-08-06T01:47:27;5.95;;;3.78;;
11488;SDS011;5801;50.804;12.638;2022-08-06T01:49:55;5.05;;;3.00;;
11488;SDS011;5801;50.804;12.638;2022-08-06T01:52:21;7.70;;;3.53;;
11488;SDS011;5801;50.804;12.638;2022-08-06T01:54:49;4.03;;;3.47;;
11488;SDS011;5801;50.804;12.638;2022-08-06T01:57:17;3.22;;;2.60;;
11488;SDS011;5801;50.804;12.638;2022-08-06T01:59:45;4.97;;;3.38;;
11488;SDS011;5801;50.804;12.638;2022-08-06T02:02:15;5.15;;;3.15;;
11488;SDS011;5801;50.804;12.638;2022-08-06T02:04:43;4.53;;;3.03;;
11488;SDS011;5801;50.804;12.638;2022-08-06T02:07:11;5.25;;;3.35;;
11488;SDS011;5801;50.804;12.638;2022-08-06T02:09:40;5.75;;;2.85;;
11488;SDS011;5801;50.804;12.638;2022-08-06T02:12:09;6.15;;;2.63;;
11488;SDS011;5801;50.804;12.638;2022-08-06T02:14:39;6.13;;;2.20;;
11488;SDS011;5801;50.804;12.638;2022-08-06T02:17:11;4.38;;;2.22;;
11488;SDS011;5801;50.804;12.638;2022-08-06T02:19:38;3.00;;;2.28;;
11488;SDS011;5801;50.804;12.638;2022-08-06T02:22:10;4.35;;;1.85;;
11488;SDS011;5801;50.804;12.638;2022-08-06T02:24:36;3.17;;;1.92;;
11488;SDS011;5801;50.804;12.638;2022-08-06T02:27:03;2.28;;;1.70;;
11488;SDS011;5801;50.804;12.638;2022-08-06T02:29:31;5.40;;;2.15;;
11488;SDS011;5801;50.804;12.638;2022-08-06T02:31:58;3.45;;;1.90;;
11488;SDS011;5801;50.804;12.638;2022-08-06T02:34:24;2.00;;;1.90;;
11488;SDS011;5801;50.804;12.638;2022-08-06T02:36:52;1.70;;;1.60;;
11488;SDS011;5801;50.804;12.638;2022-08-06T02:42:12;1.33;;;1.23;;
11488;SDS011;5801;50.804;12.638;2022-08-06T02:44:45;4.20;;;1.90;;
11488;SDS011;5801;50.804;12.638;2022-08-06T02:47:22;1.40;;;1.30;;
11488;SDS011;5801;50.804;12.638;2022-08-06T02:49:52;4.65;;;1.58;;
11488;SDS011;5801;50.804;12.638;2022-08-06T02:52:22;1.00;;;0.95;;
11488;SDS011;5801;50.804;12.638;2022-08-06T02:55:16;1.77;;;1.30;;
11488;SDS011;5801;50.804;12.638;2022-08-06T02:57:47;1.17;;;1.10;;
11488;SDS011;5801;50.804;12.638;2022-08-06T03:00:16;1.00;;;1.00;;
11488;SDS011;5801;50.804;12.638;2022-08-06T03:02:42;0.77;;;0.77;;
11488;SDS011;5801;50.804;12.638;2022-08-06T03:05:10;1.08;;;0.98;;
11488;SDS011;5801;50.804;12.638;2022-08-06T03:07:40;1.50;;;1.05;;
11488;SDS011;5801;50.804;12.638;2022-08-06T03:10:07;1.17;;;1.08;;
11488;SDS011;5801;50.804;12.638;2022-08-06T03:12:33;2.70;;;1.08;;
11488;SDS011;5801;50.804;12.638;2022-08-06T03:15:01;4.43;;;1.10;;
11488;SDS011;5801;50.804;12.638;2022-08-06T03:17:27;1.08;;;1.08;;
11488;SDS011;5801;50.804;12.638;2022-08-06T03:19:54;1.27;;;1.15;;
11488;SDS011;5801;50.804;12.638;2022-08-06T03:22:21;1.40;;;1.02;;
11488;SDS011;5801;50.804;12.638;2022-08-06T03:24:49;0.80;;;0.80;;
11488;SDS011;5801;50.804;12.638;2022-08-06T03:27:15;1.50;;;0.82;;
11488;SDS011;5801;50.804;12.638;2022-08-06T03:29:43;2.60;;;1.10;;
11488;SDS011;5801;50.804;12.638;2022-08-06T03:32:10;1.05;;;0.95;;
11488;SDS011;5801;50.804;12.638;2022-08-06T03:34:37;1.02;;;0.90;;
11488;SDS011;5801;50.804;12.638;2022-08-06T03:37:04;0.90;;;0.90;;
11488;SDS011;5801;50.804;12.638;2022-08-06T03:39:32;2.25;;;0.98;;
11488;SDS011;5801;50.804;12.638;2022-08-06T03:41:59;1.25;;;0.60;;
11488;SDS011;5801;50.804;12.638;2022-08-06T03:44:25;0.80;;;0.80;;
11488;SDS011;5801;50.804;12.638;2022-08-06T03:46:55;0.80;;;0.80;;
11488;SDS011;5801;50.804;12.638;2022-08-06T03:49:27;0.98;;;0.80;;
11488;SDS011;5801;50.804;12.638;2022-08-06T03:51:58;0.75;;;0.75;;
11488;SDS011;5801;50.804;12.638;2022-08-06T03:54:32;1.70;;;0.80;;
11488;SDS011;5801;50.804;12.638;2022-08-06T03:57:03;0.98;;;0.80;;
11488;SDS011;5801;50.804;12.638;2022-08-06T03:59:43;1.10;;;1.00;;
11488;SDS011;5801;50.804;12.638;2022-08-06T04:02:09;1.15;;;1.05;;
11488;SDS011;5801;50.804;12.638;2022-08-06T04:04:37;1.38;;;0.80;;
11488;SDS011;5801;50.804;12.638;2022-08-06T04:07:03;0.82;;;0.82;;
11488;SDS011;5801;50.804;12.638;2022-08-06T04:09:30;1.13;;;0.82;;
11488;SDS011;5801;50.804;12.638;2022-08-06T04:11:57;2.13;;;0.90;;
11488;SDS011;5801;50.804;12.638;2022-08-06T04:14:23;2.08;;;1.00;;
11488;SDS011;5801;50.804;12.638;2022-08-06T04:16:49;0.70;;;0.70;;
11488;SDS011;5801;50.804;12.638;2022-08-06T04:19:15;0.60;;;0.60;;
11488;SDS011;5801;50.804;12.638;2022-08-06T04:21:44;1.48;;;0.88;;
11488;SDS011;5801;50.804;12.638;2022-08-06T04:24:10;0.80;;;0.80;;
11488;SDS011;5801;50.804;12.638;2022-08-06T04:26:36;0.70;;;0.70;;
11488;SDS011;5801;50.804;12.638;2022-08-06T04:29:03;3.03;;;0.90;;
11488;SDS011;5801;50.804;12.638;2022-08-06T04:31:31;3.45;;;1.02;;
11488;SDS011;5801;50.804;12.638;2022-08-06T04:33:58;1.00;;;0.93;;
11488;SDS011;5801;50.804;12.638;2022-08-06T04:36:25;2.33;;;1.10;;
11488;SDS011;5801;50.804;12.638;2022-08-06T04:38:51;2.22;;;0.90;;
11488;SDS011;5801;50.804;12.638;2022-08-06T04:41:17;1.10;;;0.90;;
11488;SDS011;5801;50.804;12.638;2022-08-06T04:43:43;0.80;;;0.80;;
11488;SDS011;5801;50.804;12.638;2022-08-06T04:46:09;0.70;;;0.70;;
11488;SDS011;5801;50.804;12.638;2022-08-06T04:48:35;3.30;;;1.00;;
11488;SDS011;5801;50.804;12.638;2022-08-06T04:51:02;1.58;;;0.95;;
11488;SDS011;5801;50.804;12.638;2022-08-06T04:53:28;1.40;;;1.13;;
11488;SDS011;5801;50.804;12.638;2022-08-06T04:56:01;0.75;;;0.75;;
11488;SDS011;5801;50.804;12.638;2022-08-06T04:58:26;2.97;;;0.80;;
11488;SDS011;5801;50.804;12.638;2022-08-06T05:00:52;3.08;;;0.98;;
11488;SDS011;5801;50.804;12.638;2022-08-06T05:03:17;0.73;;;0.73;;
11488;SDS011;5801;50.804;12.638;2022-08-06T05:05:51;5.78;;;1.00;;
11488;SDS011;5801;50.804;12.638;2022-08-06T05:08:20;0.70;;;0.70;;
11488;SDS011;5801;50.804;12.638;2022-08-06T05:10:48;2.38;;;0.90;;
11488;SDS011;5801;50.804;12.638;2022-08-06T05:13:16;0.70;;;0.70;;
11488;SDS011;5801;50.804;12.638;2022-08-06T05:15:45;0.68;;;0.68;;
11488;SDS011;5801;50.804;12.638;2022-08-06T05:18:15;2.55;;;1.02;;
11488;SDS011;5801;50.804;12.638;2022-08-06T05:20:47;0.90;;;0.80;;
11488;SDS011;5801;50.804;12.638;2022-08-06T05:23:18;0.80;;;0.80;;
11488;SDS011;5801;50.804;12.638;2022-08-06T05:25:48;3.22;;;1.02;;
11488;SDS011;5801;50.804;12.638;2022-08-06T05:28:14;1.25;;;0.80;;
11488;SDS011;5801;50.804;12.638;2022-08-06T05:30:43;1.02;;;0.80;;
11488;SDS011;5801;50.804;12.638;2022-08-06T05:33:22;1.15;;;0.95;;
11488;SDS011;5801;50.804;12.638;2022-08-06T05:35:49;1.50;;;0.82;;
11488;SDS011;5801;50.804;12.638;2022-08-06T05:38:15;2.97;;;0.88;;
11488;SDS011;5801;50.804;12.638;2022-08-06T05:40:40;1.10;;;1.00;;
